sensor_id;sensor_type;location;lat;lon;timestamp;P1;durP1;ratioP1;P2;durP2;ratioP2
21663;SDS011;10993;52.510;13.456;2024-01-16T00:00:38;6.73;;;1.23;;
21663;SDS011;10993;52.510;13.456;2024-01-16T00:05:38;2.60;;;1.23;;
21663;SDS011;10993;52.510;13.456;2024-01-16T00:10:39;3.70;;;0.97;;
21663;SDS011;10993;52.510;13.456;2024-01-16T00:15:40;2.83;;;1.07;;
21663;SDS011;10993;52.510;13.456;2024-01-16T00:20:41;3.20;;;1.20;;
21663;SDS011;10993;52.510;13.456;2024-01-16T00:25:42;2.57;;;1.10;;
21663;SDS011;10993;52.510;13.456;2024-01-16T00:30:44;4.13;;;1.40;;
21663;SDS011;10993;52.510;13.456;2024-01-16T00:35:44;7.47;;;1.33;;
21663;SDS011;10993;52.510;13.456;2024-01-16T00:40:44;3.97;;;1.40;;
21663;SDS011;10993;52.510;13.456;2024-01-16T00:45:47;3.63;;;1.53;;
21663;SDS011;10993;52.510;13.456;2024-01-16T00:50:48;3.50;;;1.20;;
21663;SDS011;10993;52.510;13.456;2024-01-16T00:55:49;3.57;;;1.20;;
21663;SDS011;10993;52.510;13.456;2024-01-16T01:00:51;5.07;;;1.00;;
21663;SDS011;10993;52.510;13.456;2024-01-16T01:05:52;2.40;;;0.87;;
21663;SDS011;10993;52.510;13.456;2024-01-16T01:10:52;4.87;;;1.20;;
21663;SDS011;10993;52.510;13.456;2024-01-16T01:15:53;1.43;;;0.60;;
21663;SDS011;10993;52.510;13.456;2024-01-16T01:20:54;2.37;;;0.70;;
21663;SDS011;10993;52.510;13.456;2024-01-16T01:25:54;1.53;;;0.70;;
21663;SDS011;10993;52.510;13.456;2024-01-16T01:30:56;1.37;;;0.70;;
21663;SDS011;10993;52.510;13.456;2024-01-16T01:35:56;4.37;;;0.83;;
21663;SDS011;10993;52.510;13.456;2024-01-16T01:40:56;1.10;;;0.60;;
21663;SDS011;10993;52.510;13.456;2024-01-16T01:46:02;3.07;;;0.87;;
21663;SDS011;10993;52.510;13.456;2024-01-16T01:51:09;1.60;;;0.80;;
21663;SDS011;10993;52.510;13.456;2024-01-16T01:56:13;3.07;;;1.03;;
21663;SDS011;10993;52.510;13.456;2024-01-16T02:01:17;2.73;;;0.90;;
21663;SDS011;10993;52.510;13.456;2024-01-16T02:06:19;1.97;;;0.80;;
21663;SDS011;10993;52.510;13.456;2024-01-16T02:11:19;4.73;;;1.20;;
21663;SDS011;10993;52.510;13.456;2024-01-16T02:16:21;2.57;;;0.70;;
21663;SDS011;10993;52.510;13.456;2024-01-16T02:21:22;4.87;;;1.30;;
21663;SDS011;10993;52.510;13.456;2024-01-16T02:26:27;6.90;;;0.97;;
21663;SDS011;10993;52.510;13.456;2024-01-16T02:31:27;3.37;;;1.10;;
21663;SDS011;10993;52.510;13.456;2024-01-16T02:36:28;3.83;;;1.43;;
21663;SDS011;10993;52.510;13.456;2024-01-16T02:41:30;3.57;;;1.00;;
21663;SDS011;10993;52.510;13.456;2024-01-16T02:46:30;6.13;;;1.60;;
21663;SDS011;10993;52.510;13.456;2024-01-16T02:51:32;4.13;;;1.50;;
21663;SDS011;10993;52.510;13.456;2024-01-16T02:56:34;5.47;;;1.87;;
21663;SDS011;10993;52.510;13.456;2024-01-16T03:01:34;4.67;;;1.60;;
21663;SDS011;10993;52.510;13.456;2024-01-16T03:06:35;3.70;;;1.37;;
21663;SDS011;10993;52.510;13.456;2024-01-16T03:11:36;4.57;;;1.17;;
21663;SDS011;10993;52.510;13.456;2024-01-16T03:16:37;3.97;;;1.57;;
21663;SDS011;10993;52.510;13.456;2024-01-16T03:21:37;4.50;;;1.23;;
21663;SDS011;10993;52.510;13.456;2024-01-16T03:26:40;4.73;;;1.53;;
21663;SDS011;10993;52.510;13.456;2024-01-16T03:31:40;3.67;;;1.43;;
21663;SDS011;10993;52.510;13.456;2024-01-16T03:36:40;6.73;;;1.50;;
21663;SDS011;10993;52.510;13.456;2024-01-16T03:41:42;7.60;;;1.90;;
21663;SDS011;10993;52.510;13.456;2024-01-16T03:46:42;3.53;;;1.27;;
21663;SDS011;10993;52.510;13.456;2024-01-16T03:51:43;3.70;;;1.37;;
21663;SDS011;10993;52.510;13.456;2024-01-16T03:56:47;2.90;;;1.40;;
21663;SDS011;10993;52.510;13.456;2024-01-16T04:01:47;3.90;;;1.93;;
21663;SDS011;10993;52.510;13.456;2024-01-16T04:06:48;4.63;;;1.40;;
21663;SDS011;10993;52.510;13.456;2024-01-16T04:11:51;5.23;;;1.83;;
21663;SDS011;10993;52.510;13.456;2024-01-16T04:16:51;3.67;;;1.30;;
21663;SDS011;10993;52.510;13.456;2024-01-16T04:21:52;3.97;;;1.77;;
21663;SDS011;10993;52.510;13.456;2024-01-16T04:26:53;3.63;;;1.57;;
21663;SDS011;10993;52.510;13.456;2024-01-16T04:31:54;4.07;;;1.80;;
21663;SDS011;10993;52.510;13.456;2024-01-16T04:36:54;4.10;;;1.77;;
21663;SDS011;10993;52.510;13.456;2024-01-16T04:41:56;5.50;;;2.53;;
21663;SDS011;10993;52.510;13.456;2024-01-16T04:46:56;8.13;;;2.17;;
21663;SDS011;10993;52.510;13.456;2024-01-16T04:51:56;6.50;;;2.23;;
21663;SDS011;10993;52.510;13.456;2024-01-16T04:56:58;6.97;;;1.93;;
21663;SDS011;10993;52.510;13.456;2024-01-16T05:01:58;3.73;;;2.00;;
21663;SDS011;10993;52.510;13.456;2024-01-16T05:06:59;3.03;;;1.60;;
21663;SDS011;10993;52.510;13.456;2024-01-16T05:12:01;7.00;;;2.17;;
21663;SDS011;10993;52.510;13.456;2024-01-16T05:17:01;4.20;;;1.50;;
21663;SDS011;10993;52.510;13.456;2024-01-16T05:22:02;6.53;;;1.90;;
21663;SDS011;10993;52.510;13.456;2024-01-16T05:27:04;3.50;;;1.63;;
21663;SDS011;10993;52.510;13.456;2024-01-16T05:32:05;3.17;;;1.90;;
21663;SDS011;10993;52.510;13.456;2024-01-16T05:37:05;5.80;;;2.60;;
21663;SDS011;10993;52.510;13.456;2024-01-16T05:42:07;5.27;;;2.17;;
21663;SDS011;10993;52.510;13.456;2024-01-16T05:47:07;6.80;;;2.47;;
21663;SDS011;10993;52.510;13.456;2024-01-16T05:52:07;4.23;;;2.27;;
21663;SDS011;10993;52.510;13.456;2024-01-16T05:57:09;4.20;;;1.80;;
21663;SDS011;10993;52.510;13.456;2024-01-16T06:02:09;7.10;;;2.40;;
21663;SDS011;10993;52.510;13.456;2024-01-16T06:07:10;7.20;;;2.40;;
21663;SDS011;10993;52.510;13.456;2024-01-16T06:12:12;6.67;;;3.13;;
21663;SDS011;10993;52.510;13.456;2024-01-16T06:17:13;12.13;;;3.37;;
21663;SDS011;10993;52.510;13.456;2024-01-16T06:22:13;5.23;;;2.47;;
21663;SDS011;10993;52.510;13.456;2024-01-16T06:27:15;8.80;;;3.03;;
21663;SDS011;10993;52.510;13.456;2024-01-16T06:32:19;6.80;;;3.40;;
21663;SDS011;10993;52.510;13.456;2024-01-16T06:37:19;8.63;;;3.40;;
21663;SDS011;10993;52.510;13.456;2024-01-16T06:42:20;9.48;;;3.95;;
21663;SDS011;10993;52.510;13.456;2024-01-16T06:47:21;9.37;;;2.97;;
21663;SDS011;10993;52.510;13.456;2024-01-16T06:52:21;5.63;;;3.03;;
21663;SDS011;10993;52.510;13.456;2024-01-16T06:57:23;11.13;;;3.03;;
21663;SDS011;10993;52.510;13.456;2024-01-16T07:02:23;10.80;;;4.30;;
21663;SDS011;10993;52.510;13.456;2024-01-16T07:07:24;8.67;;;3.50;;
21663;SDS011;10993;52.510;13.456;2024-01-16T07:12:26;7.97;;;3.70;;
21663;SDS011;10993;52.510;13.456;2024-01-16T07:17:26;7.00;;;3.40;;
21663;SDS011;10993;52.510;13.456;2024-01-16T07:22:26;11.43;;;3.00;;
21663;SDS011;10993;52.510;13.456;2024-01-16T07:27:28;5.33;;;2.43;;
21663;SDS011;10993;52.510;13.456;2024-01-16T07:32:28;5.40;;;2.20;;
21663;SDS011;10993;52.510;13.456;2024-01-16T07:37:29;7.13;;;2.37;;
21663;SDS011;10993;52.510;13.456;2024-01-16T07:42:30;5.00;;;2.57;;
21663;SDS011;10993;52.510;13.456;2024-01-16T07:47:34;7.13;;;3.40;;
21663;SDS011;10993;52.510;13.456;2024-01-16T07:52:36;5.67;;;3.70;;
21663;SDS011;10993;52.510;13.456;2024-01-16T07:57:37;7.83;;;4.33;;
21663;SDS011;10993;52.510;13.456;2024-01-16T08:02:38;10.67;;;4.90;;
21663;SDS011;10993;52.510;13.456;2024-01-16T08:07:38;10.10;;;5.30;;
21663;SDS011;10993;52.510;13.456;2024-01-16T08:12:40;12.70;;;6.60;;
21663;SDS011;10993;52.510;13.456;2024-01-16T08:17:40;9.10;;;4.80;;
21663;SDS011;10993;52.510;13.456;2024-01-16T08:22:41;7.87;;;4.37;;
21663;SDS011;10993;52.510;13.456;2024-01-16T08:27:43;7.07;;;4.03;;
21663;SDS011;10993;52.510;13.456;2024-01-16T08:32:43;8.20;;;3.60;;
21663;SDS011;10993;52.510;13.456;2024-01-16T08:37:44;7.50;;;4.03;;
21663;SDS011;10993;52.510;13.456;2024-01-16T08:42:45;8.23;;;3.80;;
21663;SDS011;10993;52.510;13.456;2024-01-16T08:47:46;6.87;;;3.20;;
21663;SDS011;10993;52.510;13.456;2024-01-16T08:52:46;7.10;;;3.73;;
21663;SDS011;10993;52.510;13.456;2024-01-16T08:57:48;6.77;;;3.60;;
21663;SDS011;10993;52.510;13.456;2024-01-16T09:02:48;8.37;;;3.47;;
21663;SDS011;10993;52.510;13.456;2024-01-16T09:07:49;7.13;;;3.63;;
21663;SDS011;10993;52.510;13.456;2024-01-16T09:12:50;8.27;;;4.43;;
21663;SDS011;10993;52.510;13.456;2024-01-16T09:17:50;8.40;;;3.40;;
21663;SDS011;10993;52.510;13.456;2024-01-16T09:22:51;8.87;;;4.30;;
21663;SDS011;10993;52.510;13.456;2024-01-16T09:27:53;14.73;;;5.10;;
21663;SDS011;10993;52.510;13.456;2024-01-16T09:32:53;6.30;;;3.37;;
21663;SDS011;10993;52.510;13.456;2024-01-16T09:37:53;10.40;;;4.30;;
21663;SDS011;10993;52.510;13.456;2024-01-16T09:42:55;8.93;;;4.20;;
21663;SDS011;10993;52.510;13.456;2024-01-16T09:47:55;10.17;;;4.10;;
21663;SDS011;10993;52.510;13.456;2024-01-16T09:52:56;13.33;;;4.23;;
21663;SDS011;10993;52.510;13.456;2024-01-16T09:57:58;9.50;;;3.73;;
21663;SDS011;10993;52.510;13.456;2024-01-16T10:03:00;8.83;;;4.97;;
21663;SDS011;10993;52.510;13.456;2024-01-16T10:08:01;11.27;;;4.80;;
21663;SDS011;10993;52.510;13.456;2024-01-16T10:13:03;14.00;;;6.43;;
21663;SDS011;10993;52.510;13.456;2024-01-16T10:18:03;11.03;;;5.53;;
21663;SDS011;10993;52.510;13.456;2024-01-16T10:23:04;9.73;;;4.17;;
21663;SDS011;10993;52.510;13.456;2024-01-16T10:28:05;6.83;;;3.83;;
21663;SDS011;10993;52.510;13.456;2024-01-16T10:33:14;7.73;;;4.30;;
21663;SDS011;10993;52.510;13.456;2024-01-16T10:38:19;7.90;;;4.13;;
21663;SDS011;10993;52.510;13.456;2024-01-16T10:43:22;11.57;;;5.07;;
21663;SDS011;10993;52.510;13.456;2024-01-16T10:48:22;8.40;;;4.30;;
21663;SDS011;10993;52.510;13.456;2024-01-16T10:53:23;9.37;;;4.17;;
21663;SDS011;10993;52.510;13.456;2024-01-16T10:58:28;7.57;;;3.90;;
21663;SDS011;10993;52.510;13.456;2024-01-16T11:03:34;9.13;;;4.23;;
21663;SDS011;10993;52.510;13.456;2024-01-16T11:08:37;6.77;;;3.57;;
21663;SDS011;10993;52.510;13.456;2024-01-16T11:13:39;9.20;;;3.27;;
21663;SDS011;10993;52.510;13.456;2024-01-16T11:18:41;4.80;;;2.60;;
21663;SDS011;10993;52.510;13.456;2024-01-16T11:23:41;8.87;;;2.63;;
21663;SDS011;10993;52.510;13.456;2024-01-16T11:28:44;9.87;;;2.50;;
21663;SDS011;10993;52.510;13.456;2024-01-16T11:33:45;11.97;;;3.20;;
21663;SDS011;10993;52.510;13.456;2024-01-16T11:38:46;6.67;;;2.33;;
21663;SDS011;10993;52.510;13.456;2024-01-16T11:43:47;5.83;;;2.13;;
21663;SDS011;10993;52.510;13.456;2024-01-16T11:48:50;7.90;;;2.67;;
21663;SDS011;10993;52.510;13.456;2024-01-16T11:54:02;9.17;;;3.07;;
21663;SDS011;10993;52.510;13.456;2024-01-16T11:59:12;5.77;;;2.77;;
21663;SDS011;10993;52.510;13.456;2024-01-16T12:04:22;6.53;;;2.93;;
21663;SDS011;10993;52.510;13.456;2024-01-16T12:09:24;8.10;;;4.07;;
21663;SDS011;10993;52.510;13.456;2024-01-16T12:14:27;9.40;;;4.10;;
21663;SDS011;10993;52.510;13.456;2024-01-16T12:19:27;11.90;;;4.57;;
21663;SDS011;10993;52.510;13.456;2024-01-16T12:24:28;12.27;;;4.90;;
21663;SDS011;10993;52.510;13.456;2024-01-16T12:29:30;19.00;;;7.43;;
21663;SDS011;10993;52.510;13.456;2024-01-16T12:34:31;10.37;;;4.30;;
21663;SDS011;10993;52.510;13.456;2024-01-16T12:39:31;9.30;;;3.80;;
21663;SDS011;10993;52.510;13.456;2024-01-16T12:44:33;11.23;;;5.73;;
21663;SDS011;10993;52.510;13.456;2024-01-16T12:49:39;7.73;;;3.83;;
21663;SDS011;10993;52.510;13.456;2024-01-16T12:54:40;9.00;;;3.87;;
21663;SDS011;10993;52.510;13.456;2024-01-16T12:59:42;18.07;;;5.93;;
21663;SDS011;10993;52.510;13.456;2024-01-16T13:04:42;15.23;;;4.67;;
21663;SDS011;10993;52.510;13.456;2024-01-16T13:09:43;10.73;;;5.30;;
21663;SDS011;10993;52.510;13.456;2024-01-16T13:14:44;9.05;;;3.80;;
21663;SDS011;10993;52.510;13.456;2024-01-16T13:19:45;9.97;;;3.43;;
21663;SDS011;10993;52.510;13.456;2024-01-16T13:24:45;9.10;;;3.53;;
21663;SDS011;10993;52.510;13.456;2024-01-16T13:29:47;7.20;;;3.40;;
21663;SDS011;10993;52.510;13.456;2024-01-16T13:34:47;11.57;;;4.10;;
21663;SDS011;10993;52.510;13.456;2024-01-16T13:39:49;8.93;;;3.10;;
21663;SDS011;10993;52.510;13.456;2024-01-16T13:44:51;8.07;;;3.30;;
21663;SDS011;10993;52.510;13.456;2024-01-16T13:49:52;10.93;;;3.83;;
21663;SDS011;10993;52.510;13.456;2024-01-16T13:54:52;12.53;;;3.40;;
21663;SDS011;10993;52.510;13.456;2024-01-16T13:59:54;12.80;;;4.13;;
21663;SDS011;10993;52.510;13.456;2024-01-16T14:04:54;6.13;;;3.10;;
21663;SDS011;10993;52.510;13.456;2024-01-16T14:09:54;8.77;;;3.10;;
21663;SDS011;10993;52.510;13.456;2024-01-16T14:14:56;9.83;;;3.03;;
21663;SDS011;10993;52.510;13.456;2024-01-16T14:19:56;9.63;;;3.07;;
21663;SDS011;10993;52.510;13.456;2024-01-16T14:24:57;6.60;;;3.00;;
21663;SDS011;10993;52.510;13.456;2024-01-16T14:29:58;12.23;;;3.23;;
21663;SDS011;10993;52.510;13.456;2024-01-16T14:34:59;7.37;;;3.23;;
21663;SDS011;10993;52.510;13.456;2024-01-16T14:39:59;9.40;;;2.70;;
21663;SDS011;10993;52.510;13.456;2024-01-16T14:45:02;8.97;;;3.50;;
21663;SDS011;10993;52.510;13.456;2024-01-16T14:50:03;8.87;;;4.00;;
21663;SDS011;10993;52.510;13.456;2024-01-16T14:55:04;7.33;;;3.27;;
21663;SDS011;10993;52.510;13.456;2024-01-16T15:00:08;10.67;;;3.83;;
21663;SDS011;10993;52.510;13.456;2024-01-16T15:05:15;7.10;;;3.07;;
21663;SDS011;10993;52.510;13.456;2024-01-16T15:10:16;9.40;;;3.37;;
21663;SDS011;10993;52.510;13.456;2024-01-16T15:15:18;8.23;;;3.00;;
21663;SDS011;10993;52.510;13.456;2024-01-16T15:20:19;11.70;;;3.37;;
21663;SDS011;10993;52.510;13.456;2024-01-16T15:25:20;9.40;;;3.87;;
21663;SDS011;10993;52.510;13.456;2024-01-16T15:30:25;8.63;;;3.93;;
21663;SDS011;10993;52.510;13.456;2024-01-16T15:35:31;10.27;;;3.40;;
21663;SDS011;10993;52.510;13.456;2024-01-16T15:40:32;10.63;;;4.17;;
21663;SDS011;10993;52.510;13.456;2024-01-16T15:45:33;8.43;;;3.77;;
21663;SDS011;10993;52.510;13.456;2024-01-16T15:50:34;10.13;;;3.87;;
21663;SDS011;10993;52.510;13.456;2024-01-16T15:55:35;12.43;;;4.60;;
21663;SDS011;10993;52.510;13.456;2024-01-16T16:00:36;18.30;;;7.33;;
21663;SDS011;10993;52.510;13.456;2024-01-16T16:05:37;16.90;;;6.80;;
21663;SDS011;10993;52.510;13.456;2024-01-16T16:10:37;12.03;;;5.00;;
21663;SDS011;10993;52.510;13.456;2024-01-16T16:15:41;7.50;;;4.23;;
21663;SDS011;10993;52.510;13.456;2024-01-16T16:20:41;16.13;;;6.17;;
21663;SDS011;10993;52.510;13.456;2024-01-16T16:25:44;23.17;;;8.40;;
21663;SDS011;10993;52.510;13.456;2024-01-16T16:30:47;15.23;;;6.83;;
21663;SDS011;10993;52.510;13.456;2024-01-16T16:35:47;15.80;;;6.87;;
21663;SDS011;10993;52.510;13.456;2024-01-16T16:40:47;11.93;;;5.53;;
21663;SDS011;10993;52.510;13.456;2024-01-16T16:45:49;15.13;;;5.33;;
21663;SDS011;10993;52.510;13.456;2024-01-16T16:50:50;14.53;;;5.87;;
21663;SDS011;10993;52.510;13.456;2024-01-16T16:55:50;14.77;;;6.27;;
21663;SDS011;10993;52.510;13.456;2024-01-16T17:00:52;16.73;;;8.47;;
21663;SDS011;10993;52.510;13.456;2024-01-16T17:05:52;14.97;;;6.20;;
21663;SDS011;10993;52.510;13.456;2024-01-16T17:10:52;15.83;;;7.63;;
21663;SDS011;10993;52.510;13.456;2024-01-16T17:15:54;19.10;;;6.43;;
21663;SDS011;10993;52.510;13.456;2024-01-16T17:20:55;16.27;;;6.30;;
21663;SDS011;10993;52.510;13.456;2024-01-16T17:25:56;19.57;;;8.10;;
21663;SDS011;10993;52.510;13.456;2024-01-16T17:31:01;20.30;;;8.33;;
21663;SDS011;10993;52.510;13.456;2024-01-16T17:36:03;16.53;;;6.53;;
21663;SDS011;10993;52.510;13.456;2024-01-16T17:41:10;13.30;;;5.83;;
21663;SDS011;10993;52.510;13.456;2024-01-16T17:46:12;12.77;;;5.67;;
21663;SDS011;10993;52.510;13.456;2024-01-16T17:51:12;17.07;;;6.23;;
21663;SDS011;10993;52.510;13.456;2024-01-16T17:56:13;12.83;;;6.10;;
21663;SDS011;10993;52.510;13.456;2024-01-16T18:01:16;13.50;;;5.80;;
21663;SDS011;10993;52.510;13.456;2024-01-16T18:06:16;17.20;;;7.77;;
21663;SDS011;10993;52.510;13.456;2024-01-16T18:11:17;19.10;;;6.20;;
21663;SDS011;10993;52.510;13.456;2024-01-16T18:16:18;17.57;;;6.77;;
21663;SDS011;10993;52.510;13.456;2024-01-16T18:21:19;18.50;;;6.03;;
21663;SDS011;10993;52.510;13.456;2024-01-16T18:26:19;13.90;;;6.77;;
21663;SDS011;10993;52.510;13.456;2024-01-16T18:31:21;17.33;;;7.47;;
21663;SDS011;10993;52.510;13.456;2024-01-16T18:36:21;15.90;;;7.63;;
21663;SDS011;10993;52.510;13.456;2024-01-16T18:41:22;24.27;;;12.13;;
21663;SDS011;10993;52.510;13.456;2024-01-16T18:46:24;28.30;;;12.70;;
21663;SDS011;10993;52.510;13.456;2024-01-16T18:51:25;20.77;;;10.10;;
21663;SDS011;10993;52.510;13.456;2024-01-16T18:56:26;17.50;;;8.80;;
21663;SDS011;10993;52.510;13.456;2024-01-16T19:01:28;18.53;;;6.83;;
21663;SDS011;10993;52.510;13.456;2024-01-16T19:06:29;12.83;;;6.90;;
21663;SDS011;10993;52.510;13.456;2024-01-16T19:11:45;13.87;;;7.13;;
21663;SDS011;10993;52.510;13.456;2024-01-16T19:16:49;21.10;;;9.13;;
21663;SDS011;10993;52.510;13.456;2024-01-16T19:21:50;17.20;;;8.33;;
21663;SDS011;10993;52.510;13.456;2024-01-16T19:26:51;21.27;;;8.73;;
21663;SDS011;10993;52.510;13.456;2024-01-16T19:31:53;17.83;;;7.50;;
21663;SDS011;10993;52.510;13.456;2024-01-16T19:36:57;17.77;;;6.90;;
21663;SDS011;10993;52.510;13.456;2024-01-16T19:41:58;19.67;;;8.10;;
21663;SDS011;10993;52.510;13.456;2024-01-16T19:47:00;15.37;;;7.43;;
21663;SDS011;10993;52.510;13.456;2024-01-16T19:52:00;16.87;;;8.00;;
21663;SDS011;10993;52.510;13.456;2024-01-16T19:57:01;15.70;;;7.77;;
21663;SDS011;10993;52.510;13.456;2024-01-16T20:02:03;18.57;;;8.33;;
21663;SDS011;10993;52.510;13.456;2024-01-16T20:07:03;19.17;;;8.53;;
21663;SDS011;10993;52.510;13.456;2024-01-16T20:12:04;20.30;;;8.27;;
21663;SDS011;10993;52.510;13.456;2024-01-16T20:17:07;11.97;;;6.27;;
21663;SDS011;10993;52.510;13.456;2024-01-16T20:22:08;15.73;;;6.70;;
21663;SDS011;10993;52.510;13.456;2024-01-16T20:27:09;14.23;;;6.67;;
21663;SDS011;10993;52.510;13.456;2024-01-16T20:32:11;15.07;;;7.10;;
21663;SDS011;10993;52.510;13.456;2024-01-16T20:37:13;14.37;;;6.33;;
21663;SDS011;10993;52.510;13.456;2024-01-16T20:42:13;17.20;;;6.70;;
21663;SDS011;10993;52.510;13.456;2024-01-16T20:47:15;13.17;;;5.97;;
21663;SDS011;10993;52.510;13.456;2024-01-16T20:52:16;17.23;;;6.97;;
21663;SDS011;10993;52.510;13.456;2024-01-16T20:57:17;12.17;;;6.03;;
21663;SDS011;10993;52.510;13.456;2024-01-16T21:02:19;13.40;;;5.60;;
21663;SDS011;10993;52.510;13.456;2024-01-16T21:07:19;15.13;;;6.40;;
21663;SDS011;10993;52.510;13.456;2024-01-16T21:12:22;13.80;;;5.50;;
21663;SDS011;10993;52.510;13.456;2024-01-16T21:17:24;15.20;;;6.50;;
21663;SDS011;10993;52.510;13.456;2024-01-16T21:22:25;14.43;;;5.80;;
21663;SDS011;10993;52.510;13.456;2024-01-16T21:27:25;14.13;;;6.30;;
21663;SDS011;10993;52.510;13.456;2024-01-16T21:32:27;13.77;;;5.90;;
21663;SDS011;10993;52.510;13.456;2024-01-16T21:37:27;15.57;;;5.73;;
21663;SDS011;10993;52.510;13.456;2024-01-16T21:42:27;16.63;;;5.10;;
21663;SDS011;10993;52.510;13.456;2024-01-16T21:47:29;13.23;;;5.40;;
21663;SDS011;10993;52.510;13.456;2024-01-16T21:52:29;15.30;;;6.07;;
21663;SDS011;10993;52.510;13.456;2024-01-16T21:57:29;10.97;;;5.47;;
21663;SDS011;10993;52.510;13.456;2024-01-16T22:02:33;10.30;;;5.20;;
21663;SDS011;10993;52.510;13.456;2024-01-16T22:07:34;12.17;;;5.27;;
21663;SDS011;10993;52.510;13.456;2024-01-16T22:12:34;10.87;;;5.40;;
21663;SDS011;10993;52.510;13.456;2024-01-16T22:17:35;12.87;;;6.10;;
21663;SDS011;10993;52.510;13.456;2024-01-16T22:22:36;13.73;;;6.03;;
21663;SDS011;10993;52.510;13.456;2024-01-16T22:27:39;12.33;;;5.60;;
21663;SDS011;10993;52.510;13.456;2024-01-16T22:32:41;12.97;;;5.77;;
21663;SDS011;10993;52.510;13.456;2024-01-16T22:37:41;11.70;;;5.13;;
21663;SDS011;10993;52.510;13.456;2024-01-16T22:42:44;12.30;;;4.63;;
21663;SDS011;10993;52.510;13.456;2024-01-16T22:47:45;14.00;;;4.97;;
21663;SDS011;10993;52.510;13.456;2024-01-16T22:52:46;13.60;;;7.13;;
21663;SDS011;10993;52.510;13.456;2024-01-16T22:57:47;10.90;;;4.90;;
21663;SDS011;10993;52.510;13.456;2024-01-16T23:02:48;15.90;;;5.10;;
21663;SDS011;10993;52.510;13.456;2024-01-16T23:07:49;9.93;;;4.63;;
21663;SDS011;10993;52.510;13.456;2024-01-16T23:12:49;13.63;;;5.50;;
21663;SDS011;10993;52.510;13.456;2024-01-16T23:17:51;14.17;;;5.97;;
21663;SDS011;10993;52.510;13.456;2024-01-16T23:22:51;13.87;;;6.57;;
21663;SDS011;10993;52.510;13.456;2024-01-16T23:27:51;20.40;;;6.90;;
21663;SDS011;10993;52.510;13.456;2024-01-16T23:32:53;17.83;;;6.97;;
21663;SDS011;10993;52.510;13.456;2024-01-16T23:37:54;16.67;;;7.07;;
21663;SDS011;10993;52.510;13.456;2024-01-16T23:42:55;15.30;;;7.30;;
21663;SDS011;10993;52.510;13.456;2024-01-16T23:47:58;20.97;;;7.90;;
21663;SDS011;10993;52.510;13.456;2024-01-16T23:52:58;18.13;;;7.97;;
21663;SDS011;10993;52.510;13.456;2024-01-16T23:57:59;18.57;;;8.33;;
